Time;durP1;ratioP1;P1;durP2;ratioP2;P2;SDS_P1;SDS_P2;PMS_P1;PMS_P2;Temp;Humidity;BMP_temperature;BMP_pressure;BME280_temperature;BME280_humidity;BME280_pressure;Samples;Min_cycle;Max_cycle;Signal;HPM_P1;HPM_P2
2023/03/15 00:01:23;;;;;;;3.60;1.90;;;;;;;5.41;65.01;99207.25;78160;1301;3052210;-63
2023/03/15 00:03:49;;;;;;;2.90;1.90;;;;;;;5.39;64.88;99203.34;79221;1300;3013079;-61
2023/03/15 00:06:16;;;;;;;3.10;2.20;;;;;;;5.40;64.79;99197.95;79163;1301;3011857;-61
2023/03/15 00:08:46;;;;;;;4.90;2.20;;;;;;;5.35;64.66;99193.96;78072;1301;3049686;-62
2023/03/15 00:11:14;;;;;;;3.30;2.10;;;;;;;5.28;64.79;99189.42;79332;1298;3013021;-61
2023/03/15 00:13:44;;;;;;;3.80;2.00;;;;;;;5.23;64.93;99180.97;78771;1300;3012844;-61
2023/03/15 00:16:16;;;;;;;6.20;2.60;;;;;;;5.19;64.87;99176.10;79402;1309;3015731;-62
2023/03/15 00:18:48;;;;;;;6.60;2.40;;;;;;;5.20;64.44;99169.46;78035;1298;3068821;-62
2023/03/15 00:21:15;;;;;;;3.80;2.20;;;;;;;5.15;64.66;99164.80;79283;1300;3013314;-62
2023/03/15 00:23:41;;;;;;;5.50;2.20;;;;;;;5.12;64.73;99160.92;79192;1296;3011597;-61
2023/03/15 00:26:10;;;;;;;4.60;2.00;;;;;;;5.06;64.94;99159.46;77999;1301;3053648;-63
2023/03/15 00:28:37;;;;;;;2.80;1.80;;;;;;;5.02;64.93;99165.70;79255;1301;3013323;-63
2023/03/15 00:31:21;;;;;;;2.70;1.80;;;;;;;5.02;65.06;99158.40;78761;1301;3013666;-60
2023/03/15 00:33:52;;;;;;;4.90;2.60;;;;;;;5.00;64.63;99156.06;78063;1301;3052641;-62
2023/03/15 00:36:24;;;;;;;2.90;1.80;;;;;;;4.93;64.73;99156.86;79237;1296;3013452;-62
2023/03/15 00:38:54;;;;;;;4.60;2.50;;;;;;;4.91;64.60;99150.35;78106;1309;3051360;-61
2023/03/15 00:41:22;;;;;;;2.50;1.80;;;;;;;4.84;64.87;99145.42;79345;1301;3013381;-60
2023/03/15 00:43:52;;;;;;;2.80;1.90;;;;;;;4.79;65.08;99145.30;78825;1297;3013499;-61
2023/03/15 00:46:19;;;;;;;3.10;1.90;;;;;;;4.82;64.85;99141.52;79205;1301;3013617;-61
2023/03/15 00:48:47;;;;;;;3.60;1.90;;;;;;;4.74;65.11;99137.86;79209;1296;3011621;-62
2023/03/15 00:51:17;;;;;;;2.50;1.80;;;;;;;4.75;65.13;99132.80;77793;1304;3052415;-62
2023/03/15 00:53:45;;;;;;;2.70;1.70;;;;;;;4.70;65.07;99128.48;79242;1302;3012762;-61
2023/03/15 00:56:19;;;;;;;5.50;2.20;;;;;;;4.66;65.45;99125.73;78007;1301;3052433;-62
2023/03/15 00:58:46;;;;;;;2.60;1.90;;;;;;;4.69;65.08;99123.34;79251;1299;3011395;-61
2023/03/15 01:01:17;;;;;;;4.10;2.00;;;;;;;4.59;65.45;99128.07;79364;1295;3011913;-61
2023/03/15 01:03:45;;;;;;;2.80;1.80;;;;;;;4.55;65.61;99124.59;76177;1304;3050081;-61
2023/03/15 01:06:15;;;;;;;2.90;1.90;;;;;;;4.47;65.83;99126.86;79377;1302;3013998;-62
2023/03/15 01:08:44;;;;;;;2.20;1.80;;;;;;;4.50;65.89;99127.92;78689;1298;3011657;-61
2023/03/15 01:11:15;;;;;;;3.30;1.70;;;;;;;4.52;65.68;99122.83;79233;1298;3013568;-61
2023/03/15 01:13:44;;;;;;;6.70;2.30;;;;;;;4.44;65.98;99126.60;77922;1304;3052344;-61
2023/03/15 01:16:11;;;;;;;3.10;1.70;;;;;;;4.36;66.22;99128.87;79217;1301;3013725;-62
2023/03/15 01:18:40;;;;;;;4.40;2.10;;;;;;;4.35;66.19;99134.95;79254;1301;3011828;-61
2023/03/15 01:21:09;;;;;;;8.40;2.00;;;;;;;4.36;66.05;99130.06;78043;1301;3050885;-61
2023/03/15 01:23:38;;;;;;;4.50;2.10;;;;;;;4.35;66.02;99129.94;79303;1301;3011681;-60
2023/03/15 01:26:09;;;;;;;3.40;2.00;;;;;;;4.30;66.18;99132.74;78745;1297;3011659;-61
2023/03/15 01:28:37;;;;;;;2.90;2.00;;;;;;;4.32;66.14;99131.95;79193;1301;3011647;-61
2023/03/15 01:31:06;;;;;;;3.20;2.10;;;;;;;4.33;66.04;99135.04;78671;1299;3012801;-61
2023/03/15 01:33:33;;;;;;;2.80;2.00;;;;;;;4.38;65.84;99135.53;79213;1301;3013700;-61
2023/03/15 01:36:02;;;;;;;3.20;1.80;;;;;;;4.30;65.85;99126.30;79198;1296;3011748;-61
2023/03/15 01:38:31;;;;;;;3.80;2.40;;;;;;;4.35;65.71;99123.02;78027;1296;3048227;-60
2023/03/15 01:40:59;;;;;;;3.70;2.20;;;;;;;4.28;65.97;99117.23;79288;1301;3014717;-61
2023/03/15 01:43:27;;;;;;;2.70;1.80;;;;;;;4.34;65.78;99119.04;79277;1301;3011672;-61
2023/03/15 01:46:27;;;;;;;3.10;1.80;;;;;;;4.33;65.64;99120.82;78099;1300;3051977;-60
2023/03/15 01:49:04;;;;;;;3.30;2.00;;;;;;;4.30;65.57;99126.82;77993;1304;3057745;-61
2023/03/15 01:52:03;;;;;;;3.30;2.00;;;;;;;4.29;65.57;99130.56;78042;1301;3050331;-60
2023/03/15 01:55:06;;;;;;;2.90;1.70;;;;;;;4.24;65.87;99127.07;78003;1298;3053363;-59
2023/03/15 01:57:44;;;;;;;2.80;1.90;;;;;;;4.29;65.58;99124.63;78136;1301;3051753;-60
2023/03/15 02:00:15;;;;;;;3.70;2.10;;;;;;;4.27;65.61;99124.36;78110;1300;3053448;-61
2023/03/15 02:02:54;;;;;;;2.90;1.80;;;;;;;4.29;65.62;99133.96;78112;1298;3052510;-62
2023/03/15 02:05:31;;;;;;;5.10;1.80;;;;;;;4.36;65.34;99142.03;79216;1301;3014073;-62
2023/03/15 02:08:01;;;;;;;5.30;1.80;;;;;;;4.34;65.04;99139.70;78077;1297;3052229;-62
2023/03/15 02:10:36;;;;;;;3.40;1.60;;;;;;;4.35;65.13;99141.55;79180;1295;3013332;-61
2023/03/15 02:13:06;;;;;;;2.60;1.70;;;;;;;4.39;64.79;99143.66;78077;1298;3050931;-59
2023/03/15 02:15:34;;;;;;;2.50;1.70;;;;;;;4.38;64.75;99150.09;79063;1299;3012636;-61
2023/03/15 02:18:05;;;;;;;2.50;1.40;;;;;;;4.43;64.76;99161.55;78059;1297;3028017;-60
2023/03/15 02:21:06;;;;;;;2.60;1.60;;;;;;;4.35;64.79;99159.75;79261;1299;3011653;-61
2023/03/15 02:23:34;;;;;;;3.90;1.70;;;;;;;4.28;64.82;99155.52;78089;1304;3053168;-63
2023/03/15 02:27:07;;;;;;;2.60;1.40;;;;;;;4.39;64.55;99163.77;79967;1304;3013015;-61
2023/03/15 02:29:33;;;;;;;4.30;1.90;;;;;;;4.46;64.18;99167.83;78862;1302;3012916;-60
2023/03/15 02:32:05;;;;;;;6.80;1.70;;;;;;;4.43;63.97;99167.06;78880;1304;3011468;-59
2023/03/15 02:34:34;;;;;;;5.30;1.30;;;;;;;4.40;64.19;99166.34;77759;1307;3052732;-61
2023/03/15 02:37:02;;;;;;;2.70;1.60;;;;;;;4.38;64.10;99169.86;78933;1302;3012937;-60
2023/03/15 02:39:32;;;;;;;1.90;1.30;;;;;;;4.37;64.19;99172.84;77380;1302;3011413;-61
2023/03/15 02:42:00;;;;;;;3.50;1.80;;;;;;;4.32;64.35;99174.96;79183;1299;3018940;-61
2023/03/15 02:44:36;;;;;;;3.40;1.60;;;;;;;4.25;64.51;99174.53;77929;1299;3054566;-60
2023/03/15 02:47:07;;;;;;;2.30;1.60;;;;;;;4.29;64.42;99169.88;79194;1304;3013193;-60
2023/03/15 02:49:39;;;;;;;4.40;2.00;;;;;;;4.28;64.25;99173.39;77883;1304;3053191;-62
2023/03/15 02:52:07;;;;;;;;;;;;;;;4.24;64.53;99171.81;79189;1303;3011918;-60
2023/03/15 02:54:35;;;;;;;2.00;1.10;;;;;;;4.24;64.25;99173.71;77856;1303;3051938;-62
2023/03/15 02:57:04;;;;;;;3.80;1.50;;;;;;;4.21;64.36;99176.81;79126;1298;3011746;-60
2023/03/15 02:59:33;;;;;;;2.80;1.70;;;;;;;4.31;64.00;99176.39;77915;1304;3026812;-63
2023/03/15 03:02:04;;;;;;;2.00;1.40;;;;;;;4.31;63.95;99176.55;79216;1301;3011800;-59
2023/03/15 03:04:34;;;;;;;2.20;1.40;;;;;;;4.34;63.87;99178.16;78001;1301;3050545;-61
2023/03/15 03:07:00;;;;;;;2.50;1.40;;;;;;;4.30;63.86;99176.44;79287;1301;3013447;-59
2023/03/15 03:09:35;;;;;;;2.10;1.40;;;;;;;4.34;63.78;99175.05;77955;1299;3069312;-59
2023/03/15 03:12:02;;;;;;;2.10;1.50;;;;;;;4.38;63.69;99171.98;79320;1299;3014495;-59
2023/03/15 03:14:33;;;;;;;1.80;1.40;;;;;;;4.35;63.77;99169.30;78721;1298;3012005;-59
2023/03/15 03:17:00;;;;;;;2.10;1.50;;;;;;;4.43;63.51;99170.90;79280;1301;3013550;-60
2023/03/15 03:19:27;;;;;;;2.80;1.50;;;;;;;4.40;63.53;99168.76;79213;1298;3014027;-61
2023/03/15 03:22:00;;;;;;;2.40;1.30;;;;;;;4.34;63.64;99169.85;78048;1301;3054268;-62
2023/03/15 03:24:27;;;;;;;2.10;1.50;;;;;;;4.32;63.77;99166.63;79267;1299;3012876;-61
2023/03/15 03:26:56;;;;;;;3.00;1.50;;;;;;;4.29;63.48;99164.17;79276;1301;3011632;-60
2023/03/15 03:29:25;;;;;;;2.30;1.40;;;;;;;4.25;63.71;99165.54;78007;1300;3057195;-62
2023/03/15 03:31:53;;;;;;;3.20;1.50;;;;;;;4.21;63.62;99164.82;79304;1302;3013416;-62
2023/03/15 03:34:21;;;;;;;2.50;1.30;;;;;;;4.24;63.67;99172.14;79191;1301;3012757;-60
2023/03/15 03:36:49;;;;;;;3.80;1.40;;;;;;;4.20;63.75;99165.89;77933;1300;3053299;-61
2023/03/15 03:39:18;;;;;;;4.70;1.70;;;;;;;4.23;63.45;99170.80;79134;1301;3012651;-60
2023/03/15 03:41:48;;;;;;;2.30;1.50;;;;;;;4.20;63.62;99170.58;78734;1299;3013627;-59
2023/03/15 03:44:16;;;;;;;3.00;1.40;;;;;;;4.15;63.54;99169.38;79197;1299;3013065;-60
2023/03/15 03:46:46;;;;;;;3.80;1.60;;;;;;;4.08;63.76;99171.19;78037;1299;3049641;-60
2023/03/15 03:49:14;;;;;;;3.10;1.60;;;;;;;4.03;63.98;99178.17;79244;1302;3013269;-60
2023/03/15 03:51:40;;;;;;;4.60;1.70;;;;;;;4.03;63.91;99171.06;79228;1301;3011617;-61
2023/03/15 03:54:08;;;;;;;1.70;1.20;;;;;;;3.98;64.06;99171.77;78006;1300;3051490;-62
2023/03/15 03:56:35;;;;;;;3.90;1.70;;;;;;;3.91;64.29;99168.92;79277;1300;3012990;-61
2023/03/15 03:59:02;;;;;;;3.10;1.70;;;;;;;3.87;64.50;99168.03;79331;1301;3012821;-62
2023/03/15 04:01:42;;;;;;;3.10;1.60;;;;;;;3.89;64.47;99162.92;78059;1300;3050033;-61
2023/03/15 04:04:12;;;;;;;6.90;1.50;;;;;;;3.80;64.68;99156.68;79296;1296;3013367;-61
2023/03/15 04:06:44;;;;;;;3.10;1.70;;;;;;;3.77;64.79;99153.00;78063;1301;3049417;-61
2023/03/15 04:09:12;;;;;;;3.10;1.40;;;;;;;3.75;64.61;99150.27;79235;1309;3011719;-60
2023/03/15 04:11:43;;;;;;;2.80;1.50;;;;;;;3.77;64.61;99149.01;78126;1301;3051299;-61
2023/03/15 04:14:11;;;;;;;4.00;1.70;;;;;;;3.76;64.69;99144.70;79474;1295;3011447;-62
2023/03/15 04:16:38;;;;;;;2.30;1.60;;;;;;;3.76;64.78;99141.94;79250;1301;3011457;-62
2023/03/15 04:19:14;;;;;;;1.80;1.40;;;;;;;3.81;64.69;99140.73;77955;1298;3049266;-60
2023/03/15 04:21:46;;;;;;;3.30;1.40;;;;;;;3.77;64.58;99140.36;79293;1298;3013505;-61
2023/03/15 04:24:25;;;;;;;2.20;1.30;;;;;;;3.81;64.49;99145.71;77912;1301;3052856;-62
2023/03/15 04:27:13;;;;;;;3.50;1.60;;;;;;;3.86;64.22;99150.05;78016;1301;3053043;-62
2023/03/15 04:29:51;;;;;;;3.30;1.70;;;;;;;3.92;64.14;99138.38;77990;1301;3068850;-67
2023/03/15 04:32:38;;;;;;;3.60;1.60;;;;;;;3.95;64.10;99132.73;78044;1301;3052018;-61
2023/03/15 04:35:25;;;;;;;2.90;1.70;;;;;;;4.05;63.84;99126.80;77976;1301;3055752;-61
2023/03/15 04:38:04;;;;;;;4.50;1.60;;;;;;;4.10;63.65;99134.73;77976;1300;3050323;-60
2023/03/15 04:40:41;;;;;;;3.00;1.80;;;;;;;4.16;63.28;99146.27;78122;1301;3052552;-62
2023/03/15 04:43:41;;;;;;;2.10;1.80;;;;;;;4.18;63.13;99154.37;77992;1301;3050501;-61
2023/03/15 04:46:30;;;;;;;2.20;1.60;;;;;;;4.09;63.37;99154.36;77997;1301;3052618;-62
2023/03/15 04:49:06;;;;;;;3.00;2.00;;;;;;;4.04;63.34;99156.78;77938;1301;3052340;-64
2023/03/15 04:51:52;;;;;;;3.10;1.80;;;;;;;4.08;63.57;99151.48;78016;1301;3069484;-60
2023/03/15 04:54:39;;;;;;;3.00;1.60;;;;;;;4.01;63.75;99148.61;77947;1301;3050854;-60
2023/03/15 04:57:36;;;;;;;3.20;1.70;;;;;;;3.98;63.78;99146.48;78038;1301;3057080;-61
2023/03/15 05:00:24;;;;;;;3.00;1.70;;;;;;;4.04;63.43;99146.08;77725;1300;3050088;-61
2023/03/15 05:03:12;;;;;;;2.40;1.80;;;;;;;4.08;63.07;99149.89;78119;1301;3053752;-61
2023/03/15 05:06:09;;;;;;;4.50;1.90;;;;;;;4.04;63.17;99146.42;77501;1307;3051372;-63
2023/03/15 05:09:00;;;;;;;2.60;1.70;;;;;;;4.07;63.23;99146.28;78128;1300;3053794;-61
2023/03/15 05:11:45;;;;;;;3.90;2.00;;;;;;;4.08;63.24;99147.65;77984;1309;3052115;-61
2023/03/15 05:14:37;;;;;;;4.50;1.60;;;;;;;4.09;62.92;99146.05;78024;1299;3069423;-58
2023/03/15 05:17:23;;;;;;;1.80;1.40;;;;;;;4.10;62.86;99140.48;77938;1299;3050777;-60
2023/03/15 05:20:15;;;;;;;6.00;2.00;;;;;;;4.12;62.79;99138.48;77940;1300;3056991;-61
2023/03/15 05:22:58;;;;;;;2.40;1.50;;;;;;;4.03;62.93;99140.90;78099;1300;3049467;-59
2023/03/15 05:25:37;;;;;;;4.40;1.50;;;;;;;4.18;62.66;99143.10;77919;1295;3055374;-60
2023/03/15 05:28:19;;;;;;;2.70;1.50;;;;;;;4.29;62.58;99135.19;77902;1299;3050903;-61
2023/03/15 05:31:01;;;;;;;2.40;1.60;;;;;;;4.38;62.41;99133.30;77886;1300;3053674;-62
2023/03/15 05:33:53;;;;;;;3.30;1.80;;;;;;;4.47;61.99;99126.48;77956;1295;3053485;-62
2023/03/15 05:36:34;;;;;;;3.10;1.90;;;;;;;4.56;61.69;99135.14;77861;1301;3070972;-61
2023/03/15 05:39:23;;;;;;;3.40;1.70;;;;;;;4.57;61.60;99137.41;77949;1301;3051108;-62
2023/03/15 05:42:14;;;;;;;2.70;1.90;;;;;;;4.63;61.23;99137.64;77960;1299;3056939;-60
2023/03/15 05:44:57;;;;;;;2.00;1.60;;;;;;;4.59;61.28;99134.54;77920;1301;3049572;-61
2023/03/15 05:47:24;;;;;;;3.20;1.40;;;;;;;4.63;61.19;99134.52;79331;1301;3013172;-61
2023/03/15 05:50:17;;;;;;;3.60;1.80;;;;;;;4.66;61.16;99132.98;78082;1301;3053467;-61
2023/03/15 05:52:55;;;;;;;2.30;1.60;;;;;;;4.66;61.14;99135.63;78028;1300;3053827;-63
2023/03/15 07:42:22;;;;;;;4.90;2.30;;;;;;;7.52;56.09;99050.01;80035;1299;3011799;-63
2023/03/15 07:44:52;;;;;;;5.90;2.70;;;;;;;7.63;55.84;99041.73;79121;1303;3013573;-62
2023/03/15 07:47:26;;;;;;;5.30;2.60;;;;;;;7.65;55.82;99038.30;77834;1304;3050399;-65
2023/03/15 07:49:53;;;;;;;5.60;2.90;;;;;;;7.73;55.68;99041.17;79053;1303;3020944;-64
2023/03/15 07:52:20;;;;;;;8.30;3.20;;;;;;;7.75;55.80;99038.45;79273;1304;3011815;-62
2023/03/15 07:54:48;;;;;;;5.00;3.20;;;;;;;7.87;55.71;99041.09;75854;1298;5484549;-62
2023/03/15 07:57:15;;;;;;;4.10;2.70;;;;;;;8.00;55.41;99040.02;79188;1299;3012692;-62
2023/03/15 07:59:51;;;;;;;3.20;2.40;;;;;;;8.02;55.20;99039.39;78078;1300;3053831;-63
2023/03/15 08:02:18;;;;;;;5.40;3.00;;;;;;;8.06;55.39;99043.02;79331;1301;3011668;-62
2023/03/15 08:04:49;;;;;;;7.60;3.20;;;;;;;8.15;55.31;99042.10;78735;1301;3013201;-61
2023/03/15 08:07:16;;;;;;;6.50;3.40;;;;;;;8.29;55.37;99037.50;79226;1298;3012997;-66
2023/03/15 08:09:43;;;;;;;7.90;3.00;;;;;;;8.37;55.10;99033.85;79245;1298;3011462;-61
2023/03/15 08:12:10;;;;;;;5.10;3.20;;;;;;;8.45;54.96;99035.68;77986;1300;3057042;-62
2023/03/15 08:14:37;;;;;;;5.30;2.90;;;;;;;8.35;54.98;99040.95;79244;1296;3018714;-62
2023/03/15 08:17:12;;;;;;;6.70;2.70;;;;;;;8.44;54.79;99041.85;77981;1296;3050018;-63
2023/03/15 08:19:46;;;;;;;3.40;2.70;;;;;;;8.65;54.66;99031.77;78769;1300;3013085;-62
2023/03/15 08:22:13;;;;;;;4.10;2.90;;;;;;;8.74;54.60;99028.76;79333;1301;3013135;-64
2023/03/15 08:24:40;;;;;;;7.80;3.40;;;;;;;8.78;54.27;99030.29;79239;1298;3012857;-63
2023/03/15 08:30:28;;;;;;;5.00;3.10;;;;;;;8.97;53.84;99030.52;78073;1301;3056302;-63
2023/03/15 08:32:56;;;;;;;5.20;3.20;;;;;;;9.07;53.57;99029.05;79275;1296;3012849;-63
2023/03/15 08:35:24;;;;;;;7.40;3.30;;;;;;;9.02;53.98;99027.05;79223;1299;3012884;-62
2023/03/15 08:37:53;;;;;;;3.60;2.90;;;;;;;9.09;53.84;99026.80;77975;1301;3053582;-62
2023/03/15 08:40:23;;;;;;;5.00;2.80;;;;;;;9.15;53.54;99019.46;79350;1297;3013704;-63
2023/03/15 08:42:54;;;;;;;8.50;3.70;;;;;;;9.27;53.67;99007.86;78031;1297;3049611;-63
2023/03/15 08:45:23;;;;;;;6.10;3.50;;;;;;;9.41;53.18;99007.73;79217;1294;3012871;-63
2023/03/15 08:47:58;;;;;;;5.20;3.70;;;;;;;9.50;52.98;99007.53;78037;1295;3049617;-62
2023/03/15 08:50:27;;;;;;;7.40;3.00;;;;;;;9.58;52.84;99004.91;78123;1295;3053775;-62
2023/03/15 08:52:54;;;;;;;5.40;3.20;;;;;;;9.66;52.66;99004.54;79327;1301;3013269;-64
2023/03/15 08:55:21;;;;;;;8.00;3.60;;;;;;;9.70;52.53;98998.19;79307;1298;3011260;-63
2023/03/15 08:57:49;;;;;;;4.40;3.50;;;;;;;9.77;52.37;98991.63;78143;1296;3069158;-63
2023/03/15 09:00:19;;;;;;;5.50;3.90;;;;;;;9.88;52.54;98993.00;79327;1295;3013646;-63
2023/03/15 09:02:48;;;;;;;4.80;3.30;;;;;;;10.02;52.17;98988.27;78786;1294;3012099;-63
2023/03/15 09:05:16;;;;;;;4.90;3.70;;;;;;;10.12;51.84;98987.91;79262;1295;3013192;-63
2023/03/15 09:07:44;;;;;;;7.60;4.00;;;;;;;10.24;51.53;98983.10;79213;1296;3011866;-63
2023/03/15 09:10:13;;;;;;;9.00;4.80;;;;;;;10.35;51.42;98976.27;78240;1301;3052149;-63
2023/03/15 09:12:42;;;;;;;7.60;3.50;;;;;;;10.43;51.28;98978.58;79506;1298;3013665;-61
2023/03/15 09:15:10;;;;;;;5.50;4.10;;;;;;;10.53;50.64;98980.35;79438;1295;3011607;-62
2023/03/15 09:17:39;;;;;;;5.60;3.50;;;;;;;10.64;50.83;98981.36;78126;1300;3058040;-61
2023/03/15 09:20:13;;;;;;;6.80;4.00;;;;;;;10.69;50.62;98981.21;79525;1295;3015505;-63
2023/03/15 09:22:50;;;;;;;6.10;3.90;;;;;;;10.74;50.33;98981.71;78208;1298;3051957;-62
2023/03/15 09:25:17;;;;;;;5.20;3.60;;;;;;;10.83;50.34;98977.78;79529;1296;3011907;-62
2023/03/15 09:28:10;;;;;;;5.80;3.70;;;;;;;10.94;50.20;98974.35;78276;1300;3052878;-61
2023/03/15 09:30:38;;;;;;;7.30;4.10;;;;;;;11.04;50.04;98963.68;79314;1295;3012747;-62
2023/03/15 09:33:04;;;;;;;6.50;4.30;;;;;;;11.10;50.06;98965.02;79538;1298;3011710;-61
2023/03/15 09:35:32;;;;;;;5.60;4.10;;;;;;;11.16;49.76;98961.42;78149;1298;3050238;-63
2023/03/15 09:38:00;;;;;;;8.30;3.80;;;;;;;11.18;49.62;98964.98;79496;1296;3013817;-61
2023/03/15 09:40:28;;;;;;;8.90;4.70;;;;;;;11.23;49.88;98958.50;79366;1298;3011603;-62
2023/03/15 09:43:03;;;;;;;6.50;4.50;;;;;;;11.32;50.03;98961.21;78150;1298;3053781;-62
2023/03/15 09:46:00;;;;;;;6.50;4.30;;;;;;;11.35;49.67;98959.41;79356;1298;3011647;-62
2023/03/15 09:48:36;;;;;;;7.20;4.00;;;;;;;11.51;49.63;98950.53;78153;1295;3050163;-63
2023/03/15 09:51:06;;;;;;;6.20;4.20;;;;;;;11.54;49.44;98953.27;78167;1295;3056154;-62
2023/03/15 09:53:39;;;;;;;7.80;4.70;;;;;;;11.36;49.61;98952.14;79430;1295;3013204;-61
2023/03/15 09:56:34;;;;;;;8.70;4.10;;;;;;;11.39;49.65;98945.61;78112;1295;3053479;-63
2023/03/15 09:59:02;;;;;;;6.00;4.10;;;;;;;11.61;49.41;98941.17;78169;1295;3049954;-62
2023/03/15 10:01:39;;;;;;;7.20;4.20;;;;;;;11.70;49.43;98935.66;79226;1301;3013217;-62
2023/03/15 10:04:22;;;;;;;7.60;4.40;;;;;;;11.85;49.27;98932.59;78167;1298;3069743;-64
2023/03/15 10:06:53;;;;;;;6.30;4.00;;;;;;;12.01;49.00;98932.52;78172;1298;3052155;-62
2023/03/15 10:09:25;;;;;;;9.30;4.20;;;;;;;12.16;48.44;98930.87;79491;1295;3012894;-61
2023/03/15 10:12:14;;;;;;;7.30;3.70;;;;;;;12.11;48.41;98917.48;78193;1298;3049568;-62
2023/03/15 10:15:19;;;;;;;4.60;3.80;;;;;;;12.22;48.20;98917.23;78278;1298;3055008;-62
2023/03/15 10:18:09;;;;;;;7.40;4.20;;;;;;;12.26;48.47;98918.70;78094;1300;3050277;-63
2023/03/15 10:20:45;;;;;;;6.00;4.10;;;;;;;12.33;48.08;98924.46;78045;1300;3052872;-62
2023/03/15 10:23:20;;;;;;;6.80;4.40;;;;;;;12.42;48.28;98922.35;79226;1301;3011616;-63
2023/03/15 16:49:14;;;;;;;23.30;8.20;;;;;;;8.84;60.53;98828.06;80709;1289;3013046;-64
2023/03/15 16:51:44;;;;;;;18.90;6.70;;;;;;;8.80;61.27;98833.85;79631;1294;3013325;-62
2023/03/15 16:54:14;;;;;;;19.70;6.10;;;;;;;8.81;60.99;98833.82;78480;1294;3050078;-64
2023/03/15 16:56:41;;;;;;;16.40;5.80;;;;;;;8.80;61.01;98832.33;79731;1295;3019281;-63
2023/03/15 16:59:11;;;;;;;19.20;5.60;;;;;;;8.76;61.13;98833.43;79633;1294;3011840;-63
2023/03/15 17:01:38;;;;;;;18.70;5.90;;;;;;;8.73;61.38;98836.77;75966;1298;3056690;-63
2023/03/15 17:04:05;;;;;;;20.80;5.70;;;;;;;8.69;61.57;98839.13;79791;1291;3013609;-64
2023/03/15 17:06:33;;;;;;;15.20;5.80;;;;;;;8.69;62.48;98842.58;79894;1288;3013250;-63
2023/03/15 17:09:09;;;;;;;15.70;6.20;;;;;;;8.74;62.29;98834.94;78436;1290;3053220;-62
2023/03/15 17:11:38;;;;;;;19.00;6.20;;;;;;;8.73;62.41;98833.96;78461;1291;3053036;-62
2023/03/15 17:14:05;;;;;;;16.50;6.30;;;;;;;8.75;62.48;98830.34;79840;1290;3013285;-63
2023/03/15 17:16:32;;;;;;;26.00;7.00;;;;;;;8.76;62.28;98830.29;79591;1289;3012078;-62
2023/03/15 17:19:00;;;;;;;18.80;6.80;;;;;;;8.70;62.06;98828.68;78644;1289;3048531;-62
2023/03/15 17:21:28;;;;;;;16.80;6.50;;;;;;;8.74;62.36;98832.34;79737;1289;3012951;-66
2023/03/15 17:23:54;;;;;;;22.90;6.40;;;;;;;8.75;62.66;98827.05;79634;1291;3011880;-64
2023/03/15 17:26:23;;;;;;;22.40;7.10;;;;;;;8.69;63.03;98829.12;78498;1294;3052196;-64
2023/03/15 17:28:50;;;;;;;21.40;7.20;;;;;;;8.70;62.92;98826.67;79852;1290;3011986;-63
2023/03/15 17:31:19;;;;;;;21.90;7.90;;;;;;;8.70;63.69;98819.45;79908;1289;3011632;-62
2023/03/15 17:33:49;;;;;;;19.40;8.40;;;;;;;8.68;63.83;98823.27;78581;1292;3050021;-64
2023/03/15 17:36:20;;;;;;;20.10;7.80;;;;;;;8.62;64.50;98816.88;80057;1289;3014453;-65
2023/03/15 17:38:49;;;;;;;17.00;6.60;;;;;;;8.53;65.35;98812.87;78523;1292;3052311;-65
2023/03/15 17:41:21;;;;;;;22.70;6.80;;;;;;;8.51;65.34;98814.56;79793;1291;3013443;-63
2023/03/15 17:43:49;;;;;;;19.50;5.90;;;;;;;8.49;65.89;98816.94;78474;1290;3051648;-63
2023/03/15 17:46:16;;;;;;;18.80;6.50;;;;;;;8.40;66.15;98819.92;79826;1291;3020525;-64
2023/03/15 17:48:43;;;;;;;22.10;6.80;;;;;;;8.37;66.73;98820.45;79893;1292;3011871;-63
2023/03/15 17:51:20;;;;;;;16.00;6.60;;;;;;;8.37;66.57;98820.44;78612;1292;3050627;-64
2023/03/15 17:53:46;;;;;;;18.30;7.10;;;;;;;8.34;67.35;98833.36;79754;1289;3013551;-64
2023/03/15 17:56:14;;;;;;;16.40;6.60;;;;;;;8.33;68.20;98834.31;78574;1292;3053536;-63
2023/03/15 17:58:43;;;;;;;16.90;6.20;;;;;;;8.33;68.69;98830.28;79870;1292;3013681;-63
2023/03/15 18:01:28;;;;;;;22.80;8.20;;;;;;;8.23;69.12;98825.29;79725;1288;3013175;-64
2023/03/15 18:04:08;;;;;;;;;;;;;;;8.14;69.68;98829.89;78637;1289;3050970;-64
2023/03/15 18:06:35;;;;;;;14.70;7.50;;;;;;;8.07;69.75;98837.08;79818;1289;3011735;-63
2023/03/15 18:09:04;;;;;;;24.90;8.60;;;;;;;8.05;69.85;98838.80;79229;1291;3011891;-63
2023/03/15 18:11:34;;;;;;;17.50;8.20;;;;;;;8.00;70.33;98845.02;79773;1292;3013508;-62
2023/03/15 18:14:03;;;;;;;20.80;8.80;;;;;;;8.01;70.71;98841.33;78755;1288;3028973;-63
2023/03/15 18:16:30;;;;;;;17.60;8.60;;;;;;;8.01;70.80;98838.70;79760;1291;3011539;-63
2023/03/15 18:19:01;;;;;;;22.90;7.50;;;;;;;7.97;71.05;98835.08;78692;1291;3055827;-61
2023/03/15 18:21:27;;;;;;;19.30;6.80;;;;;;;7.97;71.18;98827.92;79757;1289;3018485;-62
2023/03/15 18:23:54;;;;;;;18.10;8.60;;;;;;;7.98;71.03;98831.36;79739;1288;3012936;-62
2023/03/15 18:26:22;;;;;;;26.70;9.30;;;;;;;7.94;71.76;98829.48;78597;1289;3029285;-62
2023/03/15 18:28:49;;;;;;;21.00;7.40;;;;;;;7.90;71.81;98827.30;79699;1292;3019671;-61
2023/03/15 18:31:21;;;;;;;22.80;7.80;;;;;;;7.87;72.30;98835.14;79782;1289;3011781;-63
2023/03/15 18:33:50;;;;;;;20.80;7.90;;;;;;;7.84;73.29;98836.38;78629;1292;3056572;-64
2023/03/15 18:36:18;;;;;;;17.80;6.90;;;;;;;7.78;73.26;98830.81;79782;1290;3013672;-62
2023/03/15 18:38:45;;;;;;;12.20;6.80;;;;;;;7.80;73.26;98823.05;79742;1292;3012941;-57
2023/03/15 18:41:21;;;;;;;11.80;5.90;;;;;;;7.73;74.17;98824.46;78584;1290;3053158;-57
2023/03/15 18:43:50;;;;;;;20.10;7.40;;;;;;;7.72;74.25;98835.16;78520;1289;3050908;-58
2023/03/15 18:46:18;;;;;;;27.20;7.00;;;;;;;7.70;74.13;98831.77;79830;1292;3014593;-57
2023/03/15 18:48:54;;;;;;;12.40;5.70;;;;;;;7.67;73.97;98828.46;78603;1292;3056624;-58
2023/03/15 18:51:24;;;;;;;19.20;5.80;;;;;;;7.69;74.15;98820.85;79809;1289;3012986;-58
2023/03/15 18:53:54;;;;;;;11.30;5.20;;;;;;;7.68;74.40;98815.86;79283;1292;3011309;-58
2023/03/15 18:56:25;;;;;;;18.00;5.20;;;;;;;7.71;74.09;98817.27;79916;1292;3014346;-59
2023/03/15 18:58:53;;;;;;;11.40;4.80;;;;;;;7.73;73.82;98813.81;78542;1294;3053514;-57
2023/03/15 19:01:23;;;;;;;17.30;4.20;;;;;;;7.74;73.27;98814.49;80114;1292;3013378;-57
2023/03/15 19:03:52;;;;;;;12.10;4.60;;;;;;;7.76;73.35;98808.95;78528;1291;3056995;-57
2023/03/15 19:06:20;;;;;;;21.70;5.40;;;;;;;7.74;74.02;98810.13;79787;1289;3014290;-68
2023/03/15 19:08:53;;;;;;;18.70;5.80;;;;;;;7.70;74.43;98812.77;79290;1288;3011554;-64
2023/03/15 19:11:20;;;;;;;14.00;5.30;;;;;;;7.67;74.72;98813.30;79718;1292;3011526;-63
2023/03/15 19:13:54;;;;;;;12.70;5.20;;;;;;;7.67;74.57;98815.59;78604;1294;3054286;-63
2023/03/15 19:16:21;;;;;;;8.20;5.10;;;;;;;7.67;74.73;98811.40;79818;1292;3012917;-64
2023/03/15 19:18:49;;;;;;;19.70;4.60;;;;;;;7.72;74.24;98808.52;79784;1288;3013306;-64
2023/03/15 19:21:18;;;;;;;14.70;4.70;;;;;;;7.74;73.26;98807.53;78736;1294;3057673;-64
2023/03/15 19:23:45;;;;;;;13.80;5.10;;;;;;;7.74;72.75;98808.40;80019;1289;3013497;-64
2023/03/15 19:26:12;;;;;;;12.90;4.40;;;;;;;7.77;72.39;98809.80;80077;1292;3013515;-63
2023/03/15 19:28:46;;;;;;;10.90;5.20;;;;;;;7.82;71.76;98810.00;78636;1294;3052727;-63
2023/03/15 19:31:12;;;;;;;16.60;6.30;;;;;;;7.78;71.85;98812.33;79779;1290;3018194;-65
2023/03/15 19:33:44;;;;;;;21.30;5.80;;;;;;;7.73;72.38;98810.34;78570;1290;3050637;-66
2023/03/15 19:36:11;;;;;;;24.60;7.20;;;;;;;7.73;73.29;98803.38;79761;1289;3014157;-63
2023/03/15 19:38:38;;;;;;;27.40;9.50;;;;;;;7.78;73.41;98801.02;79983;1290;3012968;-64
2023/03/15 19:41:09;;;;;;;27.00;8.70;;;;;;;7.78;73.33;98796.67;78514;1294;3050036;-63
2023/03/15 19:43:41;;;;;;;27.90;8.50;;;;;;;7.78;73.02;98802.94;79835;1291;3011559;-62
2023/03/15 19:46:08;;;;;;;32.80;7.50;;;;;;;7.79;72.70;98801.62;78579;1295;3053028;-63
2023/03/15 19:48:37;;;;;;;12.40;5.70;;;;;;;7.77;72.40;98797.58;79805;1291;3013133;-63
2023/03/15 19:51:04;;;;;;;14.10;5.80;;;;;;;7.76;71.54;98798.31;79892;1289;3011579;-63
2023/03/15 19:53:34;;;;;;;18.50;5.60;;;;;;;7.82;70.80;98800.04;78637;1292;3049567;-64
2023/03/15 19:56:05;;;;;;;12.80;4.20;;;;;;;7.84;70.52;98791.59;79753;1290;3012817;-63
2023/03/15 19:58:34;;;;;;;10.20;3.90;;;;;;;7.89;70.92;98790.41;78607;1292;3053182;-64
2023/03/15 20:01:02;;;;;;;15.60;5.90;;;;;;;7.89;70.38;98790.76;79601;1289;3013690;-65